createdAt,value
2023-02-19T00:01:53.987Z,282.63
2023-02-19T00:04:23.715Z,279.35
2023-02-19T00:06:52.051Z,283.23
2023-02-19T00:09:20.729Z,283.73
2023-02-19T00:11:48.825Z,283.02
2023-02-19T00:14:21.933Z,284.57
2023-02-19T00:16:51.080Z,282.80
2023-02-19T00:19:22.367Z,283.40
2023-02-19T00:21:55.012Z,276.45
2023-02-19T00:24:23.293Z,286.97
2023-02-19T00:26:51.197Z,284.45
2023-02-19T00:29:22.448Z,284.17
2023-02-19T00:31:50.176Z,292.00
2023-02-19T00:34:19.518Z,292.50
2023-02-19T00:36:47.147Z,284.63
2023-02-19T00:39:16.536Z,286.58
2023-02-19T00:41:44.700Z,289.73
2023-02-19T00:44:14.096Z,289.95
2023-02-19T00:46:47.232Z,288.83
2023-02-19T00:49:23.239Z,290.70
2023-02-19T00:51:52.845Z,287.47
2023-02-19T00:54:23.035Z,285.58
2023-02-19T00:56:51.723Z,281.52
2023-02-19T00:59:20.245Z,275.77
2023-02-19T01:01:49.927Z,273.25
2023-02-19T01:04:19.387Z,267.85
2023-02-19T01:06:49.166Z,278.90
2023-02-19T01:09:16.769Z,273.00
2023-02-19T01:11:45.249Z,282.38
2023-02-19T01:14:13.016Z,278.95
2023-02-19T01:16:42.270Z,272.05
2023-02-19T01:19:09.930Z,273.75
2023-02-19T01:21:40.058Z,273.42
2023-02-19T01:24:11.959Z,269.60
2023-02-19T01:26:40.799Z,275.45
2023-02-19T01:29:08.553Z,269.23
2023-02-19T01:31:37.882Z,280.75
2023-02-19T01:34:10.000Z,283.53
2023-02-19T01:36:38.610Z,279.60
2023-02-19T01:39:08.858Z,270.77
2023-02-19T01:41:40.581Z,272.40
2023-02-19T01:44:29.374Z,272.42
2023-02-19T01:46:58.755Z,274.50
2023-02-19T01:49:32.304Z,248.37
2023-02-19T01:52:07.137Z,242.60
2023-02-19T01:54:39.073Z,242.90
2023-02-19T01:57:10.459Z,241.88
2023-02-19T01:59:38.779Z,249.85
2023-02-19T02:02:07.905Z,247.20
2023-02-19T02:04:37.411Z,238.88
2023-02-19T02:07:26.575Z,241.07
2023-02-19T02:10:13.540Z,247.93
2023-02-19T02:12:41.856Z,254.93
2023-02-19T02:15:11.143Z,247.77
2023-02-19T02:17:57.030Z,258.90
2023-02-19T02:20:53.232Z,243.33
2023-02-19T02:23:45.599Z,249.82
2023-02-19T02:26:15.051Z,248.52
2023-02-19T02:29:30.287Z,248.13
2023-02-19T02:32:01.970Z,252.23
2023-02-19T02:34:40.113Z,250.95
2023-02-19T02:37:09.696Z,251.90
2023-02-19T02:39:39.069Z,246.00
2023-02-19T02:42:25.526Z,260.23
2023-02-19T02:45:35.353Z,258.33
2023-02-19T02:48:19.979Z,262.45
2023-02-19T02:50:53.126Z,267.20
2023-02-19T02:53:46.690Z,268.08
2023-02-19T02:56:17.076Z,263.67
2023-02-19T02:58:47.996Z,263.30
2023-02-19T03:02:03.711Z,269.08
2023-02-19T03:05:14.805Z,266.48
2023-02-19T03:07:45.716Z,272.90
2023-02-19T03:10:49.698Z,263.77
2023-02-19T03:13:47.698Z,273.98
2023-02-19T03:16:42.500Z,274.50
2023-02-19T03:19:21.176Z,271.88
2023-02-19T03:22:11.701Z,264.77
2023-02-19T03:25:09.158Z,270.45
2023-02-19T03:27:42.084Z,254.45
2023-02-19T03:30:14.989Z,257.15
2023-02-19T03:32:48.760Z,260.73
2023-02-19T03:35:21.628Z,258.95
2023-02-19T03:38:06.937Z,255.07
2023-02-19T03:41:00.141Z,250.07
2023-02-19T03:43:45.164Z,247.85
2023-02-19T03:46:15.178Z,254.98
2023-02-19T03:48:54.533Z,259.55
2023-02-19T03:51:42.315Z,252.38
2023-02-19T03:54:13.032Z,262.75
2023-02-19T03:57:01.133Z,252.25
2023-02-19T03:59:40.341Z,256.33
2023-02-19T04:02:15.255Z,274.17
2023-02-19T04:04:53.262Z,267.52
2023-02-19T04:07:24.021Z,275.87
2023-02-19T04:09:53.256Z,271.27
2023-02-19T04:12:22.821Z,265.42
2023-02-19T04:15:02.328Z,269.67
2023-02-19T04:17:53.015Z,259.20
2023-02-19T04:20:25.394Z,266.33
2023-02-19T04:22:55.112Z,263.88
2023-02-19T04:25:26.513Z,274.73
2023-02-19T04:27:54.489Z,273.88
2023-02-19T04:30:22.338Z,272.35
2023-02-19T04:32:49.938Z,270.42
2023-02-19T04:35:18.552Z,271.02
2023-02-19T04:37:46.092Z,266.80
2023-02-19T04:40:13.623Z,269.77
2023-02-19T04:42:41.169Z,262.67
2023-02-19T04:45:10.584Z,257.88
2023-02-19T04:47:39.061Z,260.13
2023-02-19T04:50:07.431Z,253.25
2023-02-19T04:52:35.773Z,253.45
2023-02-19T04:55:04.264Z,251.50
2023-02-19T04:57:34.205Z,244.27
2023-02-19T05:00:02.062Z,242.98
2023-02-19T05:02:29.964Z,242.25
2023-02-19T05:04:57.667Z,252.25
2023-02-19T05:07:25.191Z,251.05
2023-02-19T05:09:52.836Z,240.75
2023-02-19T05:12:20.984Z,260.90
2023-02-19T05:14:49.161Z,258.88
2023-02-19T05:17:16.645Z,262.85
2023-02-19T05:19:45.279Z,261.05
2023-02-19T05:22:13.407Z,256.52
2023-02-19T05:24:40.950Z,258.15
2023-02-19T05:27:08.587Z,255.18
2023-02-19T05:29:36.053Z,255.20
2023-02-19T05:32:03.804Z,255.33
2023-02-19T05:34:31.540Z,249.20
2023-02-19T05:36:59.211Z,252.82
2023-02-19T05:39:26.785Z,252.73
2023-02-19T05:41:56.290Z,251.93
2023-02-19T05:44:24.404Z,258.30
2023-02-19T05:46:53.637Z,265.63
2023-02-19T05:49:21.136Z,264.30
2023-02-19T05:51:51.181Z,260.58
2023-02-19T05:54:19.116Z,265.52
2023-02-19T05:56:48.307Z,266.17
2023-02-19T05:59:25.269Z,274.45
2023-02-19T06:01:54.428Z,288.17
2023-02-19T06:04:22.432Z,280.10
2023-02-19T06:06:51.233Z,297.73
2023-02-19T06:09:18.810Z,290.90
2023-02-19T06:11:46.298Z,272.33
2023-02-19T06:14:14.773Z,275.00
2023-02-19T06:16:43.661Z,278.58
2023-02-19T06:19:12.580Z,280.73
2023-02-19T06:21:42.500Z,283.85
2023-02-19T06:24:10.774Z,276.63
2023-02-19T06:26:38.716Z,275.50
2023-02-19T06:29:06.270Z,283.10
2023-02-19T06:31:33.814Z,279.92
2023-02-19T06:34:07.095Z,279.02
2023-02-19T06:36:35.349Z,281.45
2023-02-19T06:39:04.783Z,279.03
2023-02-19T06:41:32.774Z,286.88
2023-02-19T06:44:00.392Z,285.58
2023-02-19T06:46:28.399Z,286.83
2023-02-19T06:48:56.056Z,289.95
2023-02-19T06:51:26.412Z,289.30
2023-02-19T06:53:54.070Z,284.20
2023-02-19T06:56:28.154Z,280.52
2023-02-19T06:58:59.624Z,290.58
2023-02-19T07:01:28.984Z,276.67
2023-02-19T07:03:57.271Z,276.20
2023-02-19T07:06:26.425Z,287.70
2023-02-19T07:08:55.613Z,284.90
2023-02-19T07:11:24.079Z,273.50
2023-02-19T07:13:56.848Z,265.75
2023-02-19T07:16:25.637Z,267.30
2023-02-19T07:18:56.039Z,259.10
2023-02-19T07:21:24.341Z,255.60
2023-02-19T07:23:53.527Z,252.43
2023-02-19T07:26:21.898Z,259.20
2023-02-19T07:28:51.327Z,256.15
2023-02-19T07:31:23.367Z,250.45
2023-02-19T07:33:51.860Z,246.20
2023-02-19T07:36:21.226Z,248.27
2023-02-19T07:38:55.414Z,242.55
2023-02-19T07:41:24.468Z,249.93
2023-02-19T07:43:54.528Z,247.00
2023-02-19T07:46:23.923Z,240.98
2023-02-19T07:48:51.487Z,252.82
2023-02-19T07:51:20.661Z,246.00
2023-02-19T07:53:51.754Z,247.50
2023-02-19T07:56:21.038Z,252.67
2023-02-19T07:58:48.772Z,251.40
2023-02-19T08:01:41.030Z,245.77
2023-02-19T08:04:09.420Z,245.40
2023-02-19T08:06:37.445Z,253.10
2023-02-19T08:09:07.306Z,248.43
2023-02-19T08:11:53.885Z,249.52
2023-02-19T08:14:26.881Z,249.68
2023-02-19T08:16:54.827Z,250.15
2023-02-19T08:19:24.673Z,245.20
2023-02-19T08:21:53.699Z,246.70
2023-02-19T08:24:21.574Z,249.63
2023-02-19T08:26:49.410Z,246.27
2023-02-19T08:29:17.553Z,253.93
2023-02-19T08:31:45.726Z,253.85
2023-02-19T08:34:13.344Z,249.93
2023-02-19T08:36:40.927Z,255.38
2023-02-19T08:39:08.378Z,256.25
2023-02-19T08:41:38.939Z,254.63
2023-02-19T08:44:07.315Z,258.97
2023-02-19T08:46:34.873Z,250.93
2023-02-19T08:49:02.728Z,254.20
2023-02-19T08:51:30.400Z,251.05
2023-02-19T08:53:59.531Z,246.25
2023-02-19T08:56:27.192Z,243.98
2023-02-19T08:58:54.834Z,242.25
2023-02-19T09:01:23.764Z,227.05
2023-02-19T09:03:51.376Z,235.57
2023-02-19T09:06:22.527Z,239.43
2023-02-19T09:08:50.084Z,235.65
2023-02-19T09:11:17.578Z,227.75
2023-02-19T09:13:45.324Z,232.15
2023-02-19T09:16:13.048Z,227.15
2023-02-19T09:18:40.637Z,211.05
2023-02-19T09:21:08.357Z,218.97
2023-02-19T09:23:37.579Z,208.00
2023-02-19T09:26:09.402Z,218.80
2023-02-19T09:28:40.458Z,216.05
2023-02-19T09:31:11.479Z,208.75
2023-02-19T09:33:46.047Z,213.98
2023-02-19T09:36:15.249Z,221.63
2023-02-19T09:38:43.238Z,218.43
2023-02-19T09:41:29.144Z,214.70
2023-02-19T09:43:59.983Z,217.00
2023-02-19T09:46:33.401Z,212.88
2023-02-19T09:49:26.830Z,212.33
2023-02-19T09:52:12.680Z,212.30
2023-02-19T09:54:41.796Z,221.57
2023-02-19T09:57:16.601Z,218.43
2023-02-19T09:59:54.158Z,221.50
2023-02-19T10:02:24.368Z,223.70
2023-02-19T10:04:53.802Z,215.53
2023-02-19T10:07:43.796Z,219.75
2023-02-19T10:10:14.464Z,222.85
2023-02-19T10:12:52.320Z,237.18
2023-02-19T10:15:29.201Z,229.02
2023-02-19T10:17:57.742Z,225.95
2023-02-19T10:20:28.920Z,217.32
2023-02-19T10:23:05.760Z,207.45
2023-02-19T10:25:35.994Z,205.02
2023-02-19T10:28:05.280Z,209.57
2023-02-19T10:30:35.870Z,212.35
2023-02-19T10:33:15.547Z,210.45
2023-02-19T10:35:54.383Z,216.75
2023-02-19T10:38:29.120Z,213.20
2023-02-19T10:41:01.227Z,210.57
2023-02-19T10:43:37.054Z,215.00
2023-02-19T10:46:08.790Z,214.93
2023-02-19T10:48:40.962Z,211.20
2023-02-19T10:51:13.217Z,208.73
2023-02-19T10:53:46.997Z,206.60
2023-02-19T10:56:16.016Z,210.23
2023-02-19T10:58:45.059Z,219.02
2023-02-19T11:01:22.421Z,215.73
2023-02-19T11:03:52.649Z,214.15
2023-02-19T11:06:26.381Z,215.63
2023-02-19T11:08:57.291Z,224.53
2023-02-19T11:11:29.017Z,215.25
2023-02-19T11:13:58.614Z,216.55
2023-02-19T11:16:48.278Z,213.45
2023-02-19T11:19:44.465Z,229.40
2023-02-19T11:22:29.548Z,232.48
2023-02-19T11:25:06.667Z,232.18
2023-02-19T11:27:37.228Z,231.85
2023-02-19T11:30:35.264Z,238.40
2023-02-19T11:33:16.239Z,227.13
2023-02-19T11:35:45.055Z,228.93
2023-02-19T11:38:16.348Z,225.17
2023-02-19T11:40:50.924Z,225.15
2023-02-19T11:43:30.964Z,220.05
2023-02-19T11:46:20.570Z,221.88
2023-02-19T11:49:03.760Z,220.40
2023-02-19T11:51:36.393Z,217.50
2023-02-19T11:54:40.922Z,216.90
2023-02-19T11:57:16.648Z,219.35
2023-02-19T11:59:52.247Z,211.65
2023-02-19T12:02:32.343Z,206.20
2023-02-19T12:05:23.456Z,208.93
2023-02-19T12:08:12.975Z,207.25
2023-02-19T12:10:59.345Z,202.75
2023-02-19T12:13:56.293Z,206.50
2023-02-19T12:16:50.248Z,210.07
2023-02-19T12:19:27.539Z,194.23
2023-02-19T12:22:29.479Z,195.80
2023-02-19T12:25:25.902Z,192.50
2023-02-19T12:28:09.962Z,195.20
2023-02-19T12:31:00.619Z,180.27
2023-02-19T12:33:46.987Z,188.00
2023-02-19T12:36:28.735Z,181.07
2023-02-19T12:39:23.474Z,186.50
2023-02-19T12:42:10.590Z,186.38
2023-02-19T12:44:47.072Z,183.68
2023-02-19T12:47:28.458Z,183.80
2023-02-19T12:50:17.020Z,182.20
2023-02-19T12:52:50.801Z,180.30
2023-02-19T12:55:26.058Z,173.57
2023-02-19T12:57:55.556Z,173.05
2023-02-19T13:00:32.171Z,178.32
2023-02-19T13:03:32.446Z,180.03
2023-02-19T13:06:17.673Z,175.13
2023-02-19T13:09:14.445Z,159.85
2023-02-19T13:11:52.923Z,163.43
2023-02-19T13:14:35.526Z,163.30
2023-02-19T13:17:18.229Z,164.40
2023-02-19T13:19:50.068Z,166.13
2023-02-19T13:23:01.756Z,169.73
2023-02-19T13:26:10.381Z,167.93
2023-02-19T13:29:03.128Z,164.05
2023-02-19T13:31:51.514Z,162.13
2023-02-19T13:34:25.394Z,161.95
2023-02-19T13:36:54.558Z,161.75
2023-02-19T13:39:22.985Z,165.07
2023-02-19T13:42:02.188Z,154.90
2023-02-19T13:44:32.824Z,158.40
2023-02-19T13:47:01.260Z,160.13
2023-02-19T13:49:29.509Z,155.88
2023-02-19T13:51:59.719Z,154.82
2023-02-19T13:54:41.001Z,152.00
2023-02-19T13:57:24.985Z,156.68
2023-02-19T13:59:54.842Z,153.85
2023-02-19T14:02:28.065Z,150.60
2023-02-19T14:05:01.614Z,147.30
2023-02-19T14:07:54.625Z,150.05
2023-02-19T14:10:41.778Z,148.05
2023-02-19T14:13:09.730Z,150.40
2023-02-19T14:15:49.901Z,149.67
2023-02-19T14:18:43.769Z,145.33
2023-02-19T14:21:27.933Z,145.55
2023-02-19T14:24:00.245Z,149.00
2023-02-19T14:26:30.915Z,147.93
2023-02-19T14:29:01.706Z,145.35
2023-02-19T14:31:47.867Z,149.97
2023-02-19T14:34:24.668Z,143.95
2023-02-19T14:37:01.625Z,148.35
2023-02-19T14:39:38.033Z,146.18
2023-02-19T14:42:14.168Z,148.95
2023-02-19T14:44:53.463Z,157.68
2023-02-19T14:47:24.621Z,154.77
2023-02-19T14:50:02.382Z,155.18
2023-02-19T14:52:36.861Z,150.90
2023-02-19T14:55:08.426Z,151.88
2023-02-19T14:57:47.410Z,150.60
2023-02-19T15:00:30.420Z,155.23
2023-02-19T15:03:00.228Z,153.45
2023-02-19T15:05:32.041Z,158.20
2023-02-19T15:08:10.342Z,158.77
2023-02-19T15:10:39.254Z,158.60
2023-02-19T15:13:12.082Z,157.13
2023-02-19T15:15:44.657Z,156.80
2023-02-19T15:18:21.430Z,156.98
2023-02-19T15:20:50.527Z,160.43
2023-02-19T15:23:25.707Z,158.40
2023-02-19T15:25:54.083Z,154.77
2023-02-19T15:28:34.649Z,160.13
2023-02-19T15:31:03.981Z,155.45
2023-02-19T15:33:31.681Z,159.38
2023-02-19T15:36:04.809Z,154.05
2023-02-19T15:38:35.871Z,158.43
2023-02-19T15:41:04.654Z,166.48
2023-02-19T15:43:44.526Z,162.03
2023-02-19T15:46:20.944Z,157.50
2023-02-19T15:49:17.022Z,160.45
2023-02-19T15:51:50.635Z,160.73
2023-02-19T15:54:27.276Z,169.60
2023-02-19T15:57:00.966Z,180.88
2023-02-19T15:59:31.888Z,190.18
2023-02-19T16:02:01.777Z,188.43
2023-02-19T16:04:30.601Z,194.20
2023-02-19T16:07:00.759Z,198.45
2023-02-19T16:09:46.677Z,196.80
2023-02-19T16:12:23.621Z,186.90
2023-02-19T16:14:51.749Z,187.75
2023-02-19T16:17:23.168Z,188.83
2023-02-19T16:19:55.470Z,187.50
2023-02-19T16:22:26.893Z,183.65
2023-02-19T16:25:07.072Z,189.13
2023-02-19T16:27:38.773Z,181.20
2023-02-19T16:30:25.915Z,182.20
2023-02-19T16:33:37.118Z,180.50
2023-02-19T16:36:29.861Z,184.82
2023-02-19T16:39:09.672Z,182.32
2023-02-19T16:42:00.284Z,183.23
2023-02-19T16:44:28.115Z,184.40
2023-02-19T16:46:59.050Z,184.10
2023-02-19T16:49:27.261Z,188.20
2023-02-19T16:51:55.150Z,188.88
2023-02-19T16:54:22.960Z,190.88
2023-02-19T16:56:50.673Z,197.77
2023-02-19T16:59:18.790Z,194.73
2023-02-19T17:01:46.469Z,201.63
2023-02-19T17:04:15.983Z,195.48
2023-02-19T17:06:45.610Z,200.13
2023-02-19T17:09:14.361Z,205.17
2023-02-19T17:11:43.347Z,200.45
2023-02-19T17:14:11.533Z,209.65
2023-02-19T17:16:40.821Z,209.60
2023-02-19T17:19:17.376Z,215.32
2023-02-19T17:21:46.900Z,212.45
2023-02-19T17:24:15.781Z,212.85
2023-02-19T17:26:44.108Z,208.38
2023-02-19T17:29:15.310Z,211.90
2023-02-19T17:31:44.376Z,210.05
2023-02-19T17:34:13.335Z,211.48
2023-02-19T17:36:43.987Z,206.55
2023-02-19T17:39:15.919Z,206.80
2023-02-19T17:41:46.251Z,213.05
2023-02-19T17:44:16.095Z,211.55
2023-02-19T17:46:48.322Z,201.00
2023-02-19T17:49:17.278Z,200.97
2023-02-19T17:51:46.158Z,205.88
2023-02-19T17:54:14.746Z,203.73
2023-02-19T17:56:46.074Z,201.63
2023-02-19T17:59:15.611Z,199.80
2023-02-19T18:01:46.166Z,190.80
2023-02-19T18:04:14.676Z,190.82
2023-02-19T18:06:43.541Z,192.52
2023-02-19T18:09:15.832Z,192.23
2023-02-19T18:11:46.848Z,190.65
2023-02-19T18:14:15.519Z,194.23
2023-02-19T18:16:49.971Z,194.45
2023-02-19T18:19:18.311Z,198.40
2023-02-19T18:21:47.334Z,195.30
2023-02-19T18:24:15.699Z,203.38
2023-02-19T18:26:43.995Z,197.35
2023-02-19T18:29:12.538Z,219.55
2023-02-19T18:31:40.820Z,216.85
2023-02-19T18:34:16.879Z,218.32
2023-02-19T18:36:49.589Z,225.07
2023-02-19T18:39:17.615Z,228.90
2023-02-19T18:41:50.202Z,227.73
2023-02-19T18:44:20.516Z,221.40
2023-02-19T18:46:48.727Z,226.57
2023-02-19T18:49:17.619Z,223.10
2023-02-19T18:51:46.968Z,230.68
2023-02-19T18:54:14.818Z,230.55
2023-02-19T18:56:46.735Z,234.50
2023-02-19T18:59:14.376Z,238.77
2023-02-19T19:01:42.172Z,233.23
2023-02-19T19:04:09.687Z,235.05
2023-02-19T19:06:37.299Z,241.50
2023-02-19T19:09:05.064Z,233.07
2023-02-19T19:11:32.667Z,234.35
2023-02-19T19:14:00.111Z,238.02
2023-02-19T19:16:29.097Z,237.55
2023-02-19T19:18:57.220Z,234.25
2023-02-19T19:21:24.793Z,235.97
2023-02-19T19:23:52.275Z,236.38
2023-02-19T19:26:19.812Z,234.43
2023-02-19T19:28:47.388Z,237.82
2023-02-19T19:31:16.574Z,242.85
2023-02-19T19:33:46.724Z,235.13
2023-02-19T19:36:18.716Z,234.60
2023-02-19T19:38:47.419Z,230.27
2023-02-19T19:41:16.992Z,228.15
2023-02-19T19:43:45.380Z,223.70
2023-02-19T19:46:19.126Z,225.32
2023-02-19T19:48:53.046Z,229.55
2023-02-19T19:51:21.412Z,221.25
2023-02-19T19:53:50.130Z,226.17
2023-02-19T19:56:18.917Z,231.70
2023-02-19T19:58:48.191Z,223.70
2023-02-19T20:01:21.470Z,223.35
2023-02-19T20:03:51.807Z,219.77
2023-02-19T20:06:33.496Z,224.80
2023-02-19T20:09:02.195Z,215.40
2023-02-19T20:11:30.884Z,221.60
2023-02-19T20:13:59.142Z,219.43
2023-02-19T20:16:28.968Z,225.65
2023-02-19T20:18:57.446Z,215.70
2023-02-19T20:21:26.981Z,220.77
2023-02-19T20:23:55.342Z,217.50
2023-02-19T20:26:26.245Z,214.57
2023-02-19T20:28:55.068Z,218.82
2023-02-19T20:31:23.498Z,214.20
2023-02-19T20:33:51.835Z,214.43
2023-02-19T20:36:20.469Z,216.40
2023-02-19T20:38:50.471Z,212.90
2023-02-19T20:41:19.204Z,212.43
2023-02-19T20:43:48.007Z,217.73
2023-02-19T20:46:16.470Z,216.32
2023-02-19T20:48:45.333Z,214.90
2023-02-19T20:51:13.509Z,212.35
2023-02-19T20:53:42.865Z,212.57
2023-02-19T20:56:12.350Z,211.93
2023-02-19T20:58:43.951Z,212.47
2023-02-19T21:01:12.760Z,200.93
2023-02-19T21:03:41.298Z,207.70
2023-02-19T21:06:09.515Z,207.02
2023-02-19T21:08:37.886Z,215.50
2023-02-19T21:11:05.729Z,219.57
2023-02-19T21:13:35.261Z,209.52
2023-02-19T21:16:04.591Z,212.50
2023-02-19T21:18:33.612Z,209.63
2023-02-19T21:21:02.416Z,214.60
2023-02-19T21:23:31.340Z,217.85
2023-02-19T21:26:03.700Z,223.27
2023-02-19T21:28:32.147Z,222.13
2023-02-19T21:31:00.124Z,221.75
2023-02-19T21:33:29.046Z,219.95
2023-02-19T21:35:58.343Z,216.23
2023-02-19T21:38:26.949Z,223.85
2023-02-19T21:40:55.168Z,220.40
2023-02-19T21:43:23.404Z,219.70
2023-02-19T21:45:51.494Z,217.02
2023-02-19T21:48:19.288Z,216.93
2023-02-19T21:50:47.501Z,217.02
2023-02-19T21:53:15.523Z,218.05
2023-02-19T21:55:57.440Z,220.10
2023-02-19T21:58:26.597Z,217.80
2023-02-19T22:00:54.305Z,220.15
2023-02-19T22:03:21.822Z,216.57
2023-02-19T22:05:49.269Z,212.52
2023-02-19T22:08:17.522Z,212.00
2023-02-19T22:10:45.080Z,218.70
2023-02-19T22:13:12.749Z,208.63
2023-02-19T22:15:40.197Z,214.18
2023-02-19T22:18:07.679Z,205.07
2023-02-19T22:20:37.351Z,211.43
2023-02-19T22:23:07.265Z,211.25
2023-02-19T22:25:35.684Z,206.38
2023-02-19T22:28:05.003Z,208.25
2023-02-19T22:30:33.536Z,215.27
2023-02-19T22:33:01.401Z,212.48
2023-02-19T22:35:29.436Z,217.20
2023-02-19T22:37:57.325Z,211.05
2023-02-19T22:40:25.622Z,213.68
2023-02-19T22:42:54.289Z,209.68
2023-02-19T22:45:23.681Z,211.98
2023-02-19T22:47:55.298Z,207.43
2023-02-19T22:50:24.028Z,215.80
2023-02-19T22:52:55.424Z,219.13
2023-02-19T22:55:23.821Z,217.77
2023-02-19T22:57:51.837Z,217.65
2023-02-19T23:00:23.696Z,218.63
2023-02-19T23:02:51.885Z,207.68
2023-02-19T23:05:20.344Z,215.90
2023-02-19T23:07:48.257Z,211.73
2023-02-19T23:10:15.967Z,215.73
2023-02-19T23:12:47.595Z,213.52
2023-02-19T23:15:15.629Z,201.77
2023-02-19T23:17:44.358Z,209.40
2023-02-19T23:20:13.272Z,219.30
2023-02-19T23:22:41.831Z,223.27
2023-02-19T23:25:09.740Z,217.25
2023-02-19T23:27:37.898Z,217.73
2023-02-19T23:30:06.530Z,217.52
2023-02-19T23:32:34.197Z,218.55
2023-02-19T23:35:01.751Z,213.48
2023-02-19T23:37:30.021Z,215.63
2023-02-19T23:39:57.658Z,214.38
2023-02-19T23:42:25.345Z,206.07
2023-02-19T23:44:52.902Z,216.23
2023-02-19T23:47:22.547Z,217.23
2023-02-19T23:49:50.328Z,213.47
2023-02-19T23:52:19.114Z,216.93
2023-02-19T23:54:48.783Z,217.10
2023-02-19T23:57:16.678Z,213.70
2023-02-19T23:59:45.472Z,224.70
